Latest Weather Observations for Woomera

IDS60801

Issued at 10:01 am CDT Friday 12 February 2016 (issued every 30 minutes, with the page automatically refreshed every 10 minutes)

About weather observations | Map of weather stations | Latest weather observations for SA | Other Formats
Station Details ID: 016001 Name: WOOMERA AERODROME Lat: -31.16 Lon: 136.81 Height: 166.6 m
Data from the previous 72 hours. | See also: Recent months at Woomera
Date/Time
CDT
Temp
°C
App
Temp
°C
Dew
Point
Rel
Hum
%
Delta-T
°C
Wind Press
QNH
hPa
Press
MSL
hPa
Rain
since 9 am
mm
Dir
 
Spd
km/h
Gust
km/h
Spd
kts
Gust
kts
12/10:00am 25.8 22.3 12.1 42 7.9 SSE 22 30 12 16 1013.7 - 0.0
12/09:30am 24.3 20.9 12.5 47 6.8 SSE 22 28 12 15 1013.8 - 0.0
12/09:00am 22.9 19.6 12.9 53 5.8 SSE 22 26 12 14 1013.8 1012.9 0.0
12/08:30am 21.5 17.8 12.8 57 5.0 S 24 30 13 16 1013.9 - 0.0
12/08:00am 20.4 17.4 12.5 60 4.5 S 20 28 11 15 1013.8 - 0.0
12/07:30am 19.9 16.9 12.1 60 4.4 S 19 24 10 13 1013.5 - 0.0
12/07:00am 19.7 16.4 11.6 59 4.5 S 20 28 11 15 1013.3 - 0.0
12/06:30am 20.1 16.3 11.3 57 4.9 S 22 28 12 15 1012.9 - 0.0
12/06:00am 20.4 16.9 10.8 54 5.3 S 20 28 11 15 1012.9 1012.0 0.0
12/05:30am 20.7 17.1 10.5 52 5.6 S 20 26 11 14 1012.5 - 0.0
12/05:00am 21.2 18.1 10.2 49 6.0 S 17 24 9 13 1012.5 - 0.0
12/04:30am 21.6 18.7 9.6 46 6.5 S 15 22 8 12 1012.6 - 0.0
12/04:00am 22.1 19.1 9.3 44 6.9 S 15 20 8 11 1012.7 - 0.0
12/03:30am 22.6 18.2 8.8 41 7.4 S 22 30 12 16 1012.6 - 0.0
12/03:00am 23.1 17.8 8.6 39 7.8 S 26 33 14 18 1012.9 1012.0 0.0
12/02:30am 24.0 17.6 8.6 37 8.3 S 32 41 17 22 1013.3 - 0.0
12/02:00am 24.4 19.2 8.7 36 8.5 S 26 35 14 19 1013.4 - 0.0
12/01:30am 25.1 18.1 8.5 34 9.0 S 35 44 19 24 1013.6 - 0.0
12/01:00am 26.0 21.5 8.6 33 9.5 S 22 30 12 16 1013.9 - 0.0
12/12:30am 26.9 21.7 8.7 31 10.0 SSE 26 35 14 19 1013.9 - 0.0
12/12:00am 28.0 21.5 8.0 28 10.9 SSE 32 43 17 23 1013.8 1012.9 0.0
 
Date/Time
CDT
Temp
°C
App
Temp
°C
Dew
Point
Rel
Hum
%
Delta-T
°C
Wind Press
QNH
hPa
Press
MSL
hPa
Rain
since 9 am
mm
Dir
 
Spd
km/h
Gust
km/h
Spd
kts
Gust
kts
11/11:30pm 28.9 23.1 6.1 23 12.1 SSE 26 35 14 19 1013.7 - 0.0
11/11:00pm 29.7 22.8 6.4 23 12.5 S 32 41 17 22 1013.4 - 0.0
11/10:57pm 29.9 22.4 6.1 22 12.7 S 35 41 19 22 1013.4 - 0.0
11/10:30pm 29.9 25.8 4.2 19 13.3 S 15 20 8 11 1012.9 - 0.0
11/10:00pm 31.7 25.5 1.9 15 15.0 SSE 24 30 13 16 1012.5 - 0.0
11/09:30pm 30.6 25.7 -0.4 13 14.9 SSW 15 17 8 9 1011.9 - 0.0
11/09:00pm 32.2 27.1 -1.7 11 16.1 SSW 15 17 8 9 1011.8 1010.8 0.0
11/08:30pm 33.6 28.3 -3.6 9 17.3 S 15 19 8 10 1011.5 - 0.0
11/08:00pm 34.8 28.6 -3.0 9 17.9 S 20 28 11 15 1011.1 - 0.0
11/07:30pm 35.6 28.3 -6.1 7 18.9 S 24 33 13 18 1010.8 - 0.0
11/07:00pm 36.2 28.9 -6.4 6 19.3 SSW 24 35 13 19 1010.6 - 0.0
11/06:30pm 36.5 29.0 -4.5 7 19.2 SSW 26 35 14 19 1010.5 - 0.0
11/06:00pm 36.2 30.0 -3.2 8 18.8 SSW 20 30 11 16 1010.4 1009.5 0.0
11/05:30pm 36.6 29.5 -4.2 7 19.2 SSW 24 32 13 17 1010.4 - 0.0
11/05:00pm 36.4 30.8 0.9 10 18.1 SW 20 33 11 18 1010.4 - 0.0
11/04:30pm 36.5 31.1 1.1 11 18.1 W 19 28 10 15 1010.5 - 0.0
11/04:00pm 35.6 29.8 2.2 12 17.3 SSW 22 32 12 17 1010.6 - 0.0
11/03:30pm 36.0 30.7 2.8 12 17.4 SSW 20 32 11 17 1010.9 - 0.0
11/03:00pm 35.3 29.1 2.2 12 17.1 SSW 24 32 13 17 1011.3 1010.4 0.0
11/02:30pm 35.6 30.4 3.3 13 17.0 SSW 20 28 11 15 1011.7 - 0.0
11/02:00pm 34.9 29.7 5.7 16 15.9 SSW 22 32 12 17 1012.0 - 0.0
11/01:30pm 33.7 29.1 8.1 20 14.4 S 22 28 12 15 1012.2 - 0.0
11/01:00pm 33.1 28.9 9.8 24 13.4 S 22 30 12 16 1012.6 - 0.0
11/12:30pm 31.1 27.1 10.5 28 11.9 S 22 30 12 16 1012.9 - 0.0
11/12:00pm 30.3 26.5 11.2 30 11.1 S 22 30 12 16 1013.2 1012.3 0.0
11/11:30am 29.4 25.6 11.0 32 10.6 S 22 30 12 16 1013.4 - 0.0
11/11:00am 28.2 24.1 11.6 35 9.6 S 24 30 13 16 1013.6 - 0.0
11/10:30am 26.4 22.5 12.1 41 8.3 S 24 32 13 17 1013.5 - 0.0
11/10:00am 25.3 21.0 12.1 43 7.6 S 26 32 14 17 1013.6 - 0.0
11/09:30am 23.8 19.2 12.3 48 6.6 S 28 32 15 17 1013.6 - 0.0
11/09:00am 22.8 18.3 12.5 52 5.9 S 28 33 15 18 1013.5 1012.6 0.0
11/08:30am 21.9 17.6 12.0 53 5.6 S 26 33 14 18 1013.5 - 0.0
11/08:00am 21.1 17.3 11.2 53 5.5 S 22 30 12 16 1013.6 - 0.0
11/07:30am 20.7 16.7 10.5 52 5.6 S 22 26 12 14 1013.3 - 0.0
11/07:00am 20.7 16.8 9.6 49 6.0 SSE 20 28 11 15 1013.0 - 0.0
11/06:30am 21.0 17.7 9.7 48 6.1 S 17 26 9 14 1012.7 - 0.0
11/06:00am 21.5 18.4 10.2 48 6.2 S 17 22 9 12 1012.5 1011.6 0.0
11/05:30am 22.1 18.5 9.8 45 6.7 S 19 26 10 14 1012.2 - 0.0
11/05:00am 22.7 20.0 9.0 41 7.4 S 13 20 7 11 1012.0 - 0.0
11/04:30am 23.2 18.6 8.2 38 8.0 S 22 28 12 15 1011.8 - 0.0
11/04:00am 23.5 19.3 8.4 38 8.1 S 20 26 11 14 1011.8 - 0.0
11/03:30am 24.1 18.4 8.5 37 8.4 S 28 35 15 19 1011.7 - 0.0
11/03:00am 24.6 20.0 8.0 34 8.9 SSE 22 30 12 16 1011.8 1010.8 0.0
11/02:30am 25.2 20.1 7.6 32 9.4 S 24 35 13 19 1011.9 - 0.0
11/02:00am 25.9 20.7 7.1 30 10.0 S 24 35 13 19 1012.1 - 0.0
11/01:30am 26.7 20.6 6.7 28 10.6 SSE 28 39 15 21 1012.3 - 0.0
11/01:00am 27.2 21.1 6.7 27 10.9 SSE 28 35 15 19 1012.4 - 0.0
11/12:30am 27.9 21.6 7.3 27 11.1 SSE 30 41 16 22 1012.4 - 0.0
11/12:00am 28.7 23.9 7.2 25 11.6 SSE 22 32 12 17 1012.4 1011.5 0.0
 
Date/Time
CDT
Temp
°C
App
Temp
°C
Dew
Point
Rel
Hum
%
Delta-T
°C
Wind Press
QNH
hPa
Press
MSL
hPa
Rain
since 9 am
mm
Dir
 
Spd
km/h
Gust
km/h
Spd
kts
Gust
kts
10/11:30pm 29.4 22.8 6.1 23 12.4 SSE 30 39 16 21 1012.3 - 0.0
10/11:00pm 30.6 24.1 4.6 19 13.6 SSE 28 33 15 18 1011.9 - 0.0
10/10:30pm 31.5 25.1 5.1 19 14.0 SSE 28 32 15 17 1011.9 - 0.0
10/10:00pm 32.9 26.3 4.2 16 15.1 SSE 28 35 15 19 1011.6 - 0.0
10/09:30pm 33.6 26.3 4.3 16 15.5 SSE 32 44 17 24 1011.0 - 0.0
10/09:14pm 34.1 26.1 1.7 13 16.5 S 33 39 18 21 1010.9 - 0.0
10/09:00pm 34.1 28.5 -3.0 9 17.5 SSW 17 20 9 11 1010.8 1009.9 0.0
10/08:30pm 35.5 29.5 -2.8 8 18.3 SW 19 24 10 13 1010.5 - 0.0
10/08:00pm 36.6 30.3 -5.4 6 19.4 SW 19 24 10 13 1010.2 - 0.0
10/07:30pm 37.2 29.5 -6.3 6 19.9 SW 26 33 14 18 1010.1 - 0.0
10/07:00pm 38.3 31.6 -3.9 7 20.2 SW 22 32 12 17 1009.8 - 0.0
10/06:30pm 38.6 31.7 -2.3 7 20.1 SW 24 37 13 20 1009.7 - 0.0
10/06:00pm 38.5 34.3 1.4 10 19.3 S 13 24 7 13 1009.5 1008.6 0.0
10/05:30pm 38.6 32.8 2.1 10 19.2 SSW 22 35 12 19 1009.5 - 0.0
10/05:00pm 38.1 32.8 2.9 11 18.7 SW 20 28 11 15 1009.5 - 0.0
10/04:30pm 39.0 35.1 3.6 11 19.1 W 13 20 7 11 1009.6 - 0.0
10/04:00pm 39.1 34.4 0.8 9 19.8 WNW 15 19 8 10 1010.0 - 0.0
10/03:30pm 38.3 33.5 2.5 11 18.9 S 17 26 9 14 1010.4 - 0.0
10/03:00pm 39.0 35.9 3.5 11 19.1 W 9 11 5 6 1010.7 1009.8 0.0
10/02:30pm 38.8 33.4 2.6 10 19.2 SW 20 32 11 17 1011.0 - 0.0
10/02:00pm 38.4 34.3 2.4 10 19.0 W 13 26 7 14 1011.2 - 0.0
10/01:30pm 37.3 33.8 5.4 14 17.5 SW 13 22 7 12 1011.8 - 0.0
10/01:00pm 36.7 34.3 7.2 16 16.6 E 9 13 5 7 1012.0 - 0.0
10/12:30pm 36.0 35.2 9.5 20 15.4 W 4 15 2 8 1012.5 - 0.0
10/12:00pm 34.8 32.4 6.8 17 15.5 SW 9 13 5 7 1013.0 1012.1 0.0
10/11:30am 33.6 32.7 9.3 22 13.9 S 4 11 2 6 1013.1 - 0.0
10/11:00am 32.7 30.8 8.9 23 13.5 ESE 9 15 5 8 1013.5 - 0.0
10/10:30am 31.3 28.8 9.7 26 12.3 SE 13 19 7 10 1013.5 - 0.0
10/10:00am 29.7 26.7 10.5 30 11.0 SE 17 20 9 11 1013.7 - 0.0
10/09:30am 28.3 25.4 11.1 34 9.9 SE 17 20 9 11 1013.7 - 0.0
10/09:00am 27.0 23.6 11.3 37 9.0 SSE 20 24 11 13 1013.7 1012.8 0.0
10/08:30am 25.8 22.3 11.0 39 8.4 SSE 20 26 11 14 1013.8 - 0.0
10/08:00am 24.8 22.2 10.7 41 7.9 S 15 20 8 11 1013.5 - 0.0
10/07:30am 23.7 21.2 9.7 41 7.7 S 13 17 7 9 1013.4 - 0.0
10/07:00am 23.7 20.4 9.7 41 7.7 S 17 20 9 11 1013.0 - 0.0
10/06:30am 23.8 20.4 9.3 39 7.9 SSE 17 20 9 11 1012.7 - 0.0
10/06:00am 23.9 20.8 9.0 38 8.1 SSE 15 19 8 10 1012.6 1011.7 0.0
10/05:30am 24.5 21.7 8.6 36 8.6 S 13 17 7 9 1012.4 - 0.0
10/05:00am 24.7 21.7 7.9 34 9.0 S 13 17 7 9 1012.5 - 0.0
10/04:30am 25.6 22.1 7.4 31 9.7 S 15 20 8 11 1012.5 - 0.0
10/04:00am 25.5 22.1 7.8 32 9.5 S 15 19 8 10 1012.6 - 0.0
10/03:30am 26.5 22.8 8.0 31 10.0 SE 17 24 9 13 1012.6 - 0.0
10/03:00am 26.9 22.5 7.6 29 10.4 SSE 20 26 11 14 1012.6 1011.7 0.0
10/02:30am 27.3 22.4 6.8 27 10.9 SSE 22 30 12 16 1012.8 - 0.0
10/02:00am 27.6 23.0 6.5 26 11.2 S 20 28 11 15 1012.9 - 0.0
10/01:30am 28.5 24.0 6.9 25 11.6 SSE 20 30 11 16 1013.2 - 0.0
10/01:00am 29.4 24.0 2.4 17 13.5 SSE 20 26 11 14 1013.2 - 0.0
10/12:30am 29.9 24.4 0.8 15 14.2 SSW 19 24 10 13 1012.9 - 0.0
10/12:00am 30.2 25.6 1.5 16 14.2 SSW 15 17 8 9 1013.0 1012.1 0.0
 
Date/Time
CDT
Temp
°C
App
Temp
°C
Dew
Point
Rel
Hum
%
Delta-T
°C
Wind Press
QNH
hPa
Press
MSL
hPa
Rain
since 9 am
mm
Dir
 
Spd
km/h
Gust
km/h
Spd
kts
Gust
kts
09/11:30pm 31.0 26.4 1.4 15 14.7 S 15 19 8 10 1013.2 - 0.0
09/11:00pm 30.9 26.3 1.5 15 14.6 S 15 19 8 10 1013.3 - 0.0
09/10:30pm 31.6 26.9 1.2 14 15.1 SSW 15 19 8 10 1013.4 - 0.0
09/10:00pm 32.0 27.9 2.1 15 15.1 SSW 13 17 7 9 1013.3 - 0.0
09/09:30pm 32.2 28.2 3.0 15 15.0 S 13 15 7 8 1013.2 - 0.0
09/09:00pm 33.7 29.5 1.9 13 16.2 S 13 15 7 8 1013.0 1012.1 0.0
09/08:30pm 34.8 30.7 2.1 13 16.8 S 13 17 7 9 1012.9 - 0.0
09/08:00pm 36.3 31.2 0.5 10 18.1 S 17 24 9 13 1012.8 - 0.0
09/07:30pm 37.3 32.2 0.6 10 18.7 S 17 20 9 11 1012.7 - 0.0
09/07:00pm 37.5 32.5 1.2 10 18.7 S 17 24 9 13 1012.6 - 0.0
09/06:30pm 38.1 32.3 0.1 9 19.3 SSE 20 28 11 15 1012.6 - 0.0
09/06:00pm 38.0 34.3 2.1 10 18.8 WSW 11 17 6 9 1012.6 1011.7 0.0
09/05:30pm 37.8 32.5 1.6 10 18.8 SSW 19 35 10 19 1012.9 - 0.0
09/05:00pm 38.6 31.7 0.2 9 19.6 S 26 32 14 17 1012.9 - 0.0
09/04:30pm 38.1 32.4 0.6 9 19.2 WSW 20 30 11 16 1013.1 - 0.0
09/04:00pm 37.7 33.2 2.1 11 18.6 WSW 15 24 8 13 1013.4 - 0.0
09/03:30pm 37.5 33.5 2.8 11 18.3 WSW 13 22 7 12 1013.8 - 0.0
09/03:00pm 37.7 34.6 3.7 12 18.2 E 9 15 5 8 1014.2 1013.3 0.0
09/02:30pm 37.8 32.7 0.6 9 19.0 SW 17 20 9 11 1014.7 - 0.0
09/02:00pm 38.5 34.7 1.7 10 19.2 SSE 11 19 6 10 1015.0 - 0.0
09/01:30pm 36.8 34.4 5.3 14 17.2 S 7 13 4 7 1015.4 - 0.0
09/01:00pm 35.8 33.7 8.4 18 15.6 ENE 9 19 5 10 1015.8 - 0.0
09/12:30pm 34.3 31.9 8.6 20 14.6 SE 11 20 6 11 1016.4 - 0.0
09/12:00pm 33.2 30.2 9.1 22 13.7 E 15 22 8 12 1016.8 1015.9 0.0
09/11:30am 31.8 28.4 9.2 24 12.8 E 17 24 9 13 1017.2 - 0.0
09/11:00am 30.0 26.3 9.4 27 11.6 ESE 19 28 10 15 1017.4 - 0.0
09/10:30am 29.7 25.7 8.9 27 11.6 ESE 20 28 11 15 1017.5 - 0.0

Other Formats:

Comma delimited format used in spreadsheet applications
http://www.bom.gov.au/fwo/IDS60801/IDS60801.94659.axf

JavaScript Object Notation format (JSON) in row-major order
http://www.bom.gov.au/fwo/IDS60801/IDS60801.94659.json